Αρχική σελίδα
METAR-TAF:

METAR-TAF

Αεροδρόμια :

Old Crow, Γιουκόν, Καναδάς

γεωγραφικό πλάτος: 67-34N, γεωγραφικό μήκος: 139-49W, υψόμετρο: 251 μ

Παρών καιρός

Η αναφορά έγινε 1 ώρα και 16 λεπτά πριν, στις 01:00 UTC
Άνεμος 7 kt από Β/BA
Θερμοκρασία -2°C
Υγρασία 46%
Πίεση 1026 hPa
Ορατότητα: 56.3 χλμ
Λίγα νέφη σε ύψος 2400 πόδια

METAR: CYOC 260100Z 03007KT 35SM FEW024 M02/M12 A3029 RMK CU1 CU TR 0.0/LAST STFD OBS/NXT 261300Z SLP285

Χρόνος: 19:16 (02:16 UTC)

Πρόγνωση Καιρού

Η αναφορά έγινε 8 ώρες και 38 λεπτά πριν, στις 17:38 UTC
Η πρόγνωση ισχύει από τις 25 στις 18 UTC έως τις 26 στις 01 UTC
Άνεμος 3 kt από μεταβλητές κατευθύνσεις
Ορατότητα: 10 χλμ
Καθαρός ουρανός
Καθιστάμενος
από 25 στις 20 UTC έως τις 25 στις 22 UTC
Άνεμος 8 kt από BA

TAF: CYOC 251738Z 2518/2601 VRB03KT P6SM SKC BECMG 2520/2522 04008KT RMK NXT FCST WILL BE ISSUED AT 261445Z

Μετεωρολογικές αναφορές και προγνώσεις για περισσότερα από 4000 αεροδρόμια (δελτία METAR και TAF).

Οι διαθέσιμοι σταθμοί απεικονίζονται στο χάρτη με κίτρινες και κόκκινες κουκκίδες.

Μετακινήστε το ποντίκι πάνω από τις κουκκίδες για να δείτε το όνομα του σταθμού.

Στη συνέχεια, κάντε κλικ για να δείτε τις μετεωρολογικές αναφορές και τις προγνώσεις καιρού.

Για να αλλάξετε το χάρτη: κάντε κλικ στα πράσινα κουμπιά με τον μαύρο σταυρό για να ζουμάρετε, στο πράσινο κουμπί με την παύλα για να αφαιρέσετε το ζουμ ή στα πράσινα βέλη για να αντιπαραβάλλετε χάρτες.


METAR-TAF: